sensor_id;sensor_type;location;lat;lon;timestamp;P1;durP1;ratioP1;P2;durP2;ratioP2
67130;SDS011;54051;53.464;49.532;2022-11-15T00:00:28;4.20;;;1.45;;
67130;SDS011;54051;53.464;49.532;2022-11-15T00:02:54;5.60;;;1.58;;
67130;SDS011;54051;53.464;49.532;2022-11-15T00:05:21;7.60;;;2.85;;
67130;SDS011;54051;53.464;49.532;2022-11-15T00:07:47;7.70;;;2.72;;
67130;SDS011;54051;53.464;49.532;2022-11-15T00:10:13;8.68;;;2.83;;
67130;SDS011;54051;53.464;49.532;2022-11-15T00:12:39;9.25;;;2.88;;
67130;SDS011;54051;53.464;49.532;2022-11-15T00:15:05;9.68;;;3.15;;
67130;SDS011;54051;53.464;49.532;2022-11-15T00:17:31;8.75;;;3.20;;
67130;SDS011;54051;53.464;49.532;2022-11-15T00:19:57;11.13;;;3.08;;
67130;SDS011;54051;53.464;49.532;2022-11-15T00:22:23;8.63;;;3.13;;
67130;SDS011;54051;53.464;49.532;2022-11-15T00:24:49;7.65;;;2.67;;
67130;SDS011;54051;53.464;49.532;2022-11-15T00:27:15;10.50;;;2.92;;
67130;SDS011;54051;53.464;49.532;2022-11-15T00:29:41;9.98;;;3.50;;
67130;SDS011;54051;53.464;49.532;2022-11-15T00:32:11;8.20;;;3.10;;
67130;SDS011;54051;53.464;49.532;2022-11-15T00:34:37;9.52;;;3.35;;
67130;SDS011;54051;53.464;49.532;2022-11-15T00:37:03;11.20;;;3.20;;
67130;SDS011;54051;53.464;49.532;2022-11-15T00:39:31;9.38;;;3.03;;
67130;SDS011;54051;53.464;49.532;2022-11-15T00:41:57;9.10;;;2.92;;
67130;SDS011;54051;53.464;49.532;2022-11-15T00:44:23;7.70;;;2.75;;
67130;SDS011;54051;53.464;49.532;2022-11-15T00:46:49;7.38;;;2.50;;
67130;SDS011;54051;53.464;49.532;2022-11-15T00:49:14;10.25;;;3.00;;
67130;SDS011;54051;53.464;49.532;2022-11-15T00:51:40;7.18;;;2.50;;
67130;SDS011;54051;53.464;49.532;2022-11-15T00:54:06;8.07;;;2.70;;
67130;SDS011;54051;53.464;49.532;2022-11-15T00:56:32;8.13;;;3.15;;
67130;SDS011;54051;53.464;49.532;2022-11-15T00:58:58;9.00;;;3.10;;
67130;SDS011;54051;53.464;49.532;2022-11-15T01:01:24;11.63;;;3.40;;
67130;SDS011;54051;53.464;49.532;2022-11-15T01:03:50;8.50;;;3.00;;
67130;SDS011;54051;53.464;49.532;2022-11-15T01:06:16;8.25;;;3.08;;
67130;SDS011;54051;53.464;49.532;2022-11-15T01:08:42;10.13;;;3.03;;
67130;SDS011;54051;53.464;49.532;2022-11-15T01:11:10;10.07;;;3.20;;
67130;SDS011;54051;53.464;49.532;2022-11-15T01:13:37;8.60;;;3.47;;
67130;SDS011;54051;53.464;49.532;2022-11-15T01:18:34;9.18;;;2.78;;
67130;SDS011;54051;53.464;49.532;2022-11-15T01:21:04;8.95;;;3.28;;
67130;SDS011;54051;53.464;49.532;2022-11-15T01:23:34;6.53;;;2.30;;
67130;SDS011;54051;53.464;49.532;2022-11-15T01:26:01;8.63;;;3.13;;
67130;SDS011;54051;53.464;49.532;2022-11-15T01:28:35;11.50;;;3.58;;
67130;SDS011;54051;53.464;49.532;2022-11-15T01:31:04;11.07;;;3.50;;
67130;SDS011;54051;53.464;49.532;2022-11-15T01:33:33;9.25;;;3.05;;
67130;SDS011;54051;53.464;49.532;2022-11-15T01:36:04;9.68;;;3.25;;
67130;SDS011;54051;53.464;49.532;2022-11-15T01:38:35;11.05;;;3.17;;
67130;SDS011;54051;53.464;49.532;2022-11-15T01:41:01;9.82;;;4.20;;
67130;SDS011;54051;53.464;49.532;2022-11-15T01:43:31;10.85;;;3.60;;
67130;SDS011;54051;53.464;49.532;2022-11-15T01:46:06;8.07;;;3.00;;
67130;SDS011;54051;53.464;49.532;2022-11-15T01:51:04;8.05;;;3.08;;
67130;SDS011;54051;53.464;49.532;2022-11-15T01:53:34;8.93;;;2.95;;
67130;SDS011;54051;53.464;49.532;2022-11-15T01:56:04;8.80;;;3.00;;
67130;SDS011;54051;53.464;49.532;2022-11-15T01:58:32;8.57;;;2.60;;
67130;SDS011;54051;53.464;49.532;2022-11-15T02:00:59;12.20;;;2.97;;
67130;SDS011;54051;53.464;49.532;2022-11-15T02:03:41;8.80;;;2.83;;
67130;SDS011;54051;53.464;49.532;2022-11-15T02:06:25;7.32;;;2.30;;
67130;SDS011;54051;53.464;49.532;2022-11-15T02:08:51;7.20;;;2.30;;
67130;SDS011;54051;53.464;49.532;2022-11-15T02:11:17;7.40;;;2.72;;
67130;SDS011;54051;53.464;49.532;2022-11-15T02:13:43;9.05;;;2.50;;
67130;SDS011;54051;53.464;49.532;2022-11-15T02:19:02;8.68;;;2.88;;
67130;SDS011;54051;53.464;49.532;2022-11-15T02:21:59;9.38;;;2.97;;
67130;SDS011;54051;53.464;49.532;2022-11-15T02:35:29;7.40;;;2.60;;
67130;SDS011;54051;53.464;49.532;2022-11-15T02:38:12;6.30;;;2.17;;
67130;SDS011;54051;53.464;49.532;2022-11-15T02:41:14;6.53;;;2.03;;
67130;SDS011;54051;53.464;49.532;2022-11-15T02:43:55;9.98;;;3.03;;
67130;SDS011;54051;53.464;49.532;2022-11-15T02:49:26;11.45;;;3.40;;
67130;SDS011;54051;53.464;49.532;2022-11-15T02:51:54;9.40;;;3.53;;
67130;SDS011;54051;53.464;49.532;2022-11-15T02:54:22;8.33;;;3.17;;
67130;SDS011;54051;53.464;49.532;2022-11-15T02:56:49;10.18;;;3.53;;
67130;SDS011;54051;53.464;49.532;2022-11-15T03:11:17;8.00;;;2.60;;
67130;SDS011;54051;53.464;49.532;2022-11-15T03:19:32;6.72;;;1.55;;
67130;SDS011;54051;53.464;49.532;2022-11-15T03:22:08;7.18;;;2.08;;
67130;SDS011;54051;53.464;49.532;2022-11-15T03:24:41;7.47;;;2.30;;
67130;SDS011;54051;53.464;49.532;2022-11-15T03:28:03;10.45;;;3.05;;
67130;SDS011;54051;53.464;49.532;2022-11-15T03:30:32;9.70;;;2.47;;
67130;SDS011;54051;53.464;49.532;2022-11-15T03:33:04;7.57;;;2.47;;
67130;SDS011;54051;53.464;49.532;2022-11-15T03:35:32;9.53;;;3.30;;
67130;SDS011;54051;53.464;49.532;2022-11-15T03:38:05;8.35;;;2.90;;
67130;SDS011;54051;53.464;49.532;2022-11-15T03:40:42;7.10;;;2.17;;
67130;SDS011;54051;53.464;49.532;2022-11-15T03:43:29;6.18;;;1.80;;
67130;SDS011;54051;53.464;49.532;2022-11-15T03:45:58;4.93;;;1.77;;
67130;SDS011;54051;53.464;49.532;2022-11-15T03:51:34;8.05;;;2.30;;
67130;SDS011;54051;53.464;49.532;2022-11-15T03:54:02;7.22;;;2.13;;
67130;SDS011;54051;53.464;49.532;2022-11-15T03:56:32;8.85;;;2.13;;
67130;SDS011;54051;53.464;49.532;2022-11-15T03:58:58;4.97;;;1.30;;
67130;SDS011;54051;53.464;49.532;2022-11-15T04:01:26;4.70;;;1.08;;
67130;SDS011;54051;53.464;49.532;2022-11-15T04:03:52;5.97;;;1.40;;
67130;SDS011;54051;53.464;49.532;2022-11-15T04:06:18;5.15;;;1.30;;
67130;SDS011;54051;53.464;49.532;2022-11-15T04:08:44;5.10;;;1.30;;
67130;SDS011;54051;53.464;49.532;2022-11-15T04:11:10;5.05;;;1.63;;
67130;SDS011;54051;53.464;49.532;2022-11-15T04:13:36;6.03;;;1.60;;
67130;SDS011;54051;53.464;49.532;2022-11-15T04:16:07;5.40;;;1.50;;
67130;SDS011;54051;53.464;49.532;2022-11-15T04:18:33;6.05;;;1.40;;
67130;SDS011;54051;53.464;49.532;2022-11-15T04:20:59;5.72;;;1.48;;
67130;SDS011;54051;53.464;49.532;2022-11-15T04:23:43;6.32;;;1.27;;
67130;SDS011;54051;53.464;49.532;2022-11-15T04:26:28;3.80;;;1.10;;
67130;SDS011;54051;53.464;49.532;2022-11-15T04:28:54;3.80;;;1.20;;
67130;SDS011;54051;53.464;49.532;2022-11-15T04:31:38;5.60;;;1.30;;
67130;SDS011;54051;53.464;49.532;2022-11-15T04:34:04;4.70;;;1.30;;
67130;SDS011;54051;53.464;49.532;2022-11-15T04:36:30;6.53;;;1.33;;
67130;SDS011;54051;53.464;49.532;2022-11-15T04:39:14;8.82;;;1.77;;
67130;SDS011;54051;53.464;49.532;2022-11-15T04:41:40;7.10;;;1.90;;
67130;SDS011;54051;53.464;49.532;2022-11-15T04:44:06;6.28;;;1.98;;
67130;SDS011;54051;53.464;49.532;2022-11-15T04:46:38;8.25;;;2.00;;
67130;SDS011;54051;53.464;49.532;2022-11-15T04:49:04;6.15;;;1.80;;
67130;SDS011;54051;53.464;49.532;2022-11-15T04:51:30;5.00;;;1.95;;
67130;SDS011;54051;53.464;49.532;2022-11-15T04:53:56;6.03;;;1.77;;
67130;SDS011;54051;53.464;49.532;2022-11-15T04:56:22;4.60;;;1.40;;
67130;SDS011;54051;53.464;49.532;2022-11-15T04:58:50;4.40;;;1.33;;
67130;SDS011;54051;53.464;49.532;2022-11-15T05:01:17;4.53;;;1.30;;
67130;SDS011;54051;53.464;49.532;2022-11-15T05:03:43;4.72;;;1.40;;
67130;SDS011;54051;53.464;49.532;2022-11-15T05:06:29;5.00;;;1.65;;
67130;SDS011;54051;53.464;49.532;2022-11-15T05:08:55;7.63;;;2.10;;
67130;SDS011;54051;53.464;49.532;2022-11-15T05:11:21;6.30;;;1.98;;
67130;SDS011;54051;53.464;49.532;2022-11-15T05:14:26;6.18;;;2.10;;
67130;SDS011;54051;53.464;49.532;2022-11-15T05:16:52;5.13;;;1.77;;
67130;SDS011;54051;53.464;49.532;2022-11-15T05:19:18;4.38;;;1.50;;
67130;SDS011;54051;53.464;49.532;2022-11-15T05:21:44;5.00;;;1.48;;
67130;SDS011;54051;53.464;49.532;2022-11-15T05:24:11;4.63;;;1.40;;
67130;SDS011;54051;53.464;49.532;2022-11-15T05:26:37;4.30;;;1.38;;
67130;SDS011;54051;53.464;49.532;2022-11-15T05:29:03;4.85;;;1.40;;
67130;SDS011;54051;53.464;49.532;2022-11-15T05:31:29;6.57;;;1.73;;
67130;SDS011;54051;53.464;49.532;2022-11-15T05:33:55;5.30;;;1.70;;
67130;SDS011;54051;53.464;49.532;2022-11-15T05:39:08;4.95;;;1.20;;
67130;SDS011;54051;53.464;49.532;2022-11-15T05:41:44;4.88;;;1.35;;
67130;SDS011;54051;53.464;49.532;2022-11-15T05:44:17;6.22;;;1.50;;
67130;SDS011;54051;53.464;49.532;2022-11-15T05:46:47;3.45;;;1.15;;
67130;SDS011;54051;53.464;49.532;2022-11-15T05:49:17;8.65;;;1.40;;
67130;SDS011;54051;53.464;49.532;2022-11-15T05:51:47;3.80;;;1.30;;
67130;SDS011;54051;53.464;49.532;2022-11-15T05:54:14;5.35;;;1.40;;
67130;SDS011;54051;53.464;49.532;2022-11-15T05:59:08;6.50;;;1.85;;
67130;SDS011;54051;53.464;49.532;2022-11-15T06:01:36;5.15;;;1.83;;
67130;SDS011;54051;53.464;49.532;2022-11-15T06:04:05;5.18;;;1.67;;
67130;SDS011;54051;53.464;49.532;2022-11-15T06:06:31;5.05;;;1.55;;
67130;SDS011;54051;53.464;49.532;2022-11-15T06:08:57;5.03;;;1.40;;
67130;SDS011;54051;53.464;49.532;2022-11-15T06:11:23;6.93;;;1.50;;
67130;SDS011;54051;53.464;49.532;2022-11-15T06:13:50;4.50;;;1.40;;
67130;SDS011;54051;53.464;49.532;2022-11-15T06:16:16;5.93;;;1.80;;
67130;SDS011;54051;53.464;49.532;2022-11-15T06:18:42;4.95;;;1.70;;
67130;SDS011;54051;53.464;49.532;2022-11-15T06:21:08;9.07;;;2.70;;
67130;SDS011;54051;53.464;49.532;2022-11-15T06:23:34;8.07;;;2.90;;
67130;SDS011;54051;53.464;49.532;2022-11-15T06:26:01;9.25;;;2.72;;
67130;SDS011;54051;53.464;49.532;2022-11-15T06:28:31;6.25;;;2.15;;
67130;SDS011;54051;53.464;49.532;2022-11-15T06:31:05;7.50;;;2.90;;
67130;SDS011;54051;53.464;49.532;2022-11-15T06:33:32;11.02;;;3.38;;
67130;SDS011;54051;53.464;49.532;2022-11-15T06:36:06;10.73;;;3.33;;
67130;SDS011;54051;53.464;49.532;2022-11-15T06:38:39;10.55;;;3.72;;
67130;SDS011;54051;53.464;49.532;2022-11-15T06:41:06;11.48;;;3.25;;
67130;SDS011;54051;53.464;49.532;2022-11-15T06:43:34;8.98;;;3.10;;
67130;SDS011;54051;53.464;49.532;2022-11-15T06:46:01;12.00;;;3.13;;
67130;SDS011;54051;53.464;49.532;2022-11-15T06:48:28;8.32;;;2.97;;
67130;SDS011;54051;53.464;49.532;2022-11-15T06:50:56;10.77;;;3.20;;
67130;SDS011;54051;53.464;49.532;2022-11-15T06:53:24;8.98;;;2.75;;
67130;SDS011;54051;53.464;49.532;2022-11-15T06:55:50;7.40;;;3.15;;
67130;SDS011;54051;53.464;49.532;2022-11-15T06:58:16;7.05;;;2.40;;
67130;SDS011;54051;53.464;49.532;2022-11-15T07:00:43;10.20;;;2.25;;
67130;SDS011;54051;53.464;49.532;2022-11-15T07:03:09;5.00;;;1.77;;
67130;SDS011;54051;53.464;49.532;2022-11-15T07:05:35;7.57;;;1.73;;
67130;SDS011;54051;53.464;49.532;2022-11-15T07:08:02;6.75;;;2.30;;
67130;SDS011;54051;53.464;49.532;2022-11-15T07:10:28;6.20;;;2.00;;
67130;SDS011;54051;53.464;49.532;2022-11-15T07:12:55;6.30;;;2.00;;
67130;SDS011;54051;53.464;49.532;2022-11-15T07:15:22;6.17;;;1.97;;
67130;SDS011;54051;53.464;49.532;2022-11-15T07:17:50;8.45;;;2.30;;
67130;SDS011;54051;53.464;49.532;2022-11-15T07:20:16;6.40;;;1.83;;
67130;SDS011;54051;53.464;49.532;2022-11-15T07:22:43;4.50;;;1.55;;
67130;SDS011;54051;53.464;49.532;2022-11-15T07:25:10;4.57;;;1.75;;
67130;SDS011;54051;53.464;49.532;2022-11-15T07:27:37;6.80;;;1.75;;
67130;SDS011;54051;53.464;49.532;2022-11-15T07:30:04;7.20;;;2.00;;
67130;SDS011;54051;53.464;49.532;2022-11-15T07:32:30;8.38;;;2.25;;
67130;SDS011;54051;53.464;49.532;2022-11-15T07:34:56;8.00;;;2.30;;
67130;SDS011;54051;53.464;49.532;2022-11-15T07:37:22;7.38;;;2.25;;
67130;SDS011;54051;53.464;49.532;2022-11-15T07:39:48;8.30;;;2.22;;
67130;SDS011;54051;53.464;49.532;2022-11-15T07:42:14;7.03;;;2.05;;
67130;SDS011;54051;53.464;49.532;2022-11-15T07:44:59;7.18;;;1.83;;
67130;SDS011;54051;53.464;49.532;2022-11-15T07:47:24;5.75;;;1.83;;
67130;SDS011;54051;53.464;49.532;2022-11-15T07:49:53;9.68;;;2.00;;
67130;SDS011;54051;53.464;49.532;2022-11-15T07:52:19;6.22;;;1.80;;
67130;SDS011;54051;53.464;49.532;2022-11-15T07:54:45;6.00;;;1.88;;
67130;SDS011;54051;53.464;49.532;2022-11-15T07:57:11;6.97;;;2.30;;
67130;SDS011;54051;53.464;49.532;2022-11-15T07:59:37;8.15;;;1.92;;
67130;SDS011;54051;53.464;49.532;2022-11-15T08:02:03;5.40;;;1.70;;
67130;SDS011;54051;53.464;49.532;2022-11-15T08:04:29;5.60;;;1.60;;
67130;SDS011;54051;53.464;49.532;2022-11-15T08:06:55;5.40;;;1.52;;
67130;SDS011;54051;53.464;49.532;2022-11-15T08:09:22;6.85;;;1.90;;
67130;SDS011;54051;53.464;49.532;2022-11-15T08:11:48;6.45;;;2.38;;
67130;SDS011;54051;53.464;49.532;2022-11-15T08:14:14;6.57;;;2.13;;
67130;SDS011;54051;53.464;49.532;2022-11-15T08:16:40;7.72;;;2.15;;
67130;SDS011;54051;53.464;49.532;2022-11-15T08:19:06;7.95;;;2.13;;
67130;SDS011;54051;53.464;49.532;2022-11-15T08:21:32;6.40;;;2.10;;
67130;SDS011;54051;53.464;49.532;2022-11-15T08:23:58;8.20;;;2.00;;
67130;SDS011;54051;53.464;49.532;2022-11-15T08:26:24;5.55;;;1.55;;
67130;SDS011;54051;53.464;49.532;2022-11-15T08:28:52;6.68;;;1.58;;
67130;SDS011;54051;53.464;49.532;2022-11-15T08:31:18;4.28;;;1.40;;
67130;SDS011;54051;53.464;49.532;2022-11-15T08:33:44;5.50;;;1.70;;
67130;SDS011;54051;53.464;49.532;2022-11-15T08:36:15;4.85;;;1.55;;
67130;SDS011;54051;53.464;49.532;2022-11-15T08:38:42;5.28;;;1.85;;
67130;SDS011;54051;53.464;49.532;2022-11-15T08:41:09;6.07;;;1.77;;
67130;SDS011;54051;53.464;49.532;2022-11-15T08:43:45;8.55;;;2.10;;
67130;SDS011;54051;53.464;49.532;2022-11-15T08:46:11;8.18;;;2.20;;
67130;SDS011;54051;53.464;49.532;2022-11-15T08:48:39;7.50;;;2.53;;
67130;SDS011;54051;53.464;49.532;2022-11-15T08:51:05;7.72;;;2.60;;
67130;SDS011;54051;53.464;49.532;2022-11-15T08:53:31;8.50;;;2.38;;
67130;SDS011;54051;53.464;49.532;2022-11-15T08:56:00;8.90;;;2.50;;
67130;SDS011;54051;53.464;49.532;2022-11-15T08:58:30;17.83;;;3.20;;
67130;SDS011;54051;53.464;49.532;2022-11-15T09:00:56;9.05;;;3.42;;
67130;SDS011;54051;53.464;49.532;2022-11-15T09:03:22;9.00;;;3.55;;
67130;SDS011;54051;53.464;49.532;2022-11-15T09:05:48;10.60;;;3.70;;
67130;SDS011;54051;53.464;49.532;2022-11-15T09:08:20;6.05;;;2.22;;
67130;SDS011;54051;53.464;49.532;2022-11-15T09:10:50;7.55;;;2.05;;
67130;SDS011;54051;53.464;49.532;2022-11-15T09:13:16;7.40;;;2.03;;
67130;SDS011;54051;53.464;49.532;2022-11-15T09:15:48;7.05;;;2.00;;
67130;SDS011;54051;53.464;49.532;2022-11-15T09:18:23;7.55;;;2.30;;
67130;SDS011;54051;53.464;49.532;2022-11-15T09:20:58;4.82;;;1.83;;
67130;SDS011;54051;53.464;49.532;2022-11-15T09:23:28;6.82;;;2.03;;
67130;SDS011;54051;53.464;49.532;2022-11-15T09:25:58;7.45;;;2.50;;
67130;SDS011;54051;53.464;49.532;2022-11-15T09:28:36;8.00;;;2.97;;
67130;SDS011;54051;53.464;49.532;2022-11-15T09:31:04;9.45;;;3.00;;
67130;SDS011;54051;53.464;49.532;2022-11-15T09:33:31;9.00;;;2.00;;
67130;SDS011;54051;53.464;49.532;2022-11-15T09:36:01;4.68;;;1.60;;
67130;SDS011;54051;53.464;49.532;2022-11-15T09:38:31;7.18;;;2.40;;
67130;SDS011;54051;53.464;49.532;2022-11-15T09:43:53;5.53;;;1.92;;
67130;SDS011;54051;53.464;49.532;2022-11-15T09:49:22;6.72;;;2.17;;
67130;SDS011;54051;53.464;49.532;2022-11-15T09:51:50;7.55;;;2.10;;
67130;SDS011;54051;53.464;49.532;2022-11-15T09:57:12;7.72;;;2.65;;
67130;SDS011;54051;53.464;49.532;2022-11-15T10:03:16;8.27;;;2.25;;
67130;SDS011;54051;53.464;49.532;2022-11-15T10:05:52;6.43;;;1.65;;
67130;SDS011;54051;53.464;49.532;2022-11-15T10:10:49;9.63;;;1.70;;
67130;SDS011;54051;53.464;49.532;2022-11-15T10:13:25;6.05;;;1.60;;
67130;SDS011;54051;53.464;49.532;2022-11-15T10:16:03;4.75;;;1.50;;
67130;SDS011;54051;53.464;49.532;2022-11-15T10:18:57;4.90;;;1.70;;
67130;SDS011;54051;53.464;49.532;2022-11-15T10:21:37;5.35;;;1.67;;
67130;SDS011;54051;53.464;49.532;2022-11-15T10:24:18;7.38;;;1.75;;
67130;SDS011;54051;53.464;49.532;2022-11-15T10:26:46;6.63;;;2.30;;
67130;SDS011;54051;53.464;49.532;2022-11-15T10:29:20;7.97;;;2.00;;
67130;SDS011;54051;53.464;49.532;2022-11-15T10:31:47;6.85;;;2.70;;
67130;SDS011;54051;53.464;49.532;2022-11-15T10:34:17;7.82;;;2.30;;
67130;SDS011;54051;53.464;49.532;2022-11-15T10:36:55;7.28;;;1.70;;
67130;SDS011;54051;53.464;49.532;2022-11-15T10:39:22;4.30;;;1.30;;
67130;SDS011;54051;53.464;49.532;2022-11-15T10:41:49;5.25;;;1.60;;
67130;SDS011;54051;53.464;49.532;2022-11-15T10:46:43;5.15;;;1.50;;
67130;SDS011;54051;53.464;49.532;2022-11-15T10:49:20;4.55;;;1.60;;
67130;SDS011;54051;53.464;49.532;2022-11-15T10:57:06;5.97;;;1.73;;
67130;SDS011;54051;53.464;49.532;2022-11-15T10:59:38;5.40;;;1.92;;
67130;SDS011;54051;53.464;49.532;2022-11-15T11:05:12;7.53;;;1.65;;
67130;SDS011;54051;53.464;49.532;2022-11-15T11:07:55;6.13;;;1.48;;
67130;SDS011;54051;53.464;49.532;2022-11-15T11:10:26;5.28;;;1.63;;
67130;SDS011;54051;53.464;49.532;2022-11-15T11:12:53;5.17;;;1.60;;
67130;SDS011;54051;53.464;49.532;2022-11-15T11:15:19;5.03;;;1.63;;
67130;SDS011;54051;53.464;49.532;2022-11-15T11:20:36;5.63;;;1.70;;
67130;SDS011;54051;53.464;49.532;2022-11-15T11:29:15;6.97;;;2.28;;
67130;SDS011;54051;53.464;49.532;2022-11-15T11:31:48;6.05;;;2.20;;
67130;SDS011;54051;53.464;49.532;2022-11-15T11:34:54;6.90;;;2.30;;
67130;SDS011;54051;53.464;49.532;2022-11-15T11:37:49;7.47;;;2.70;;
67130;SDS011;54051;53.464;49.532;2022-11-15T11:40:40;10.98;;;3.78;;
67130;SDS011;54051;53.464;49.532;2022-11-15T11:43:24;8.30;;;2.80;;
67130;SDS011;54051;53.464;49.532;2022-11-15T11:49:15;8.55;;;2.03;;
67130;SDS011;54051;53.464;49.532;2022-11-15T11:51:54;7.40;;;1.92;;
67130;SDS011;54051;53.464;49.532;2022-11-15T11:54:48;6.13;;;1.90;;
67130;SDS011;54051;53.464;49.532;2022-11-15T12:05:51;4.90;;;1.80;;
67130;SDS011;54051;53.464;49.532;2022-11-15T12:08:25;5.18;;;1.55;;
67130;SDS011;54051;53.464;49.532;2022-11-15T12:11:00;6.18;;;1.95;;
67130;SDS011;54051;53.464;49.532;2022-11-15T12:13:32;6.65;;;1.70;;
67130;SDS011;54051;53.464;49.532;2022-11-15T12:18:39;7.13;;;2.03;;
67130;SDS011;54051;53.464;49.532;2022-11-15T12:21:21;5.82;;;1.80;;
67130;SDS011;54051;53.464;49.532;2022-11-15T12:24:02;6.65;;;1.90;;
67130;SDS011;54051;53.464;49.532;2022-11-15T12:26:36;7.25;;;2.10;;
67130;SDS011;54051;53.464;49.532;2022-11-15T12:29:11;4.90;;;1.65;;
67130;SDS011;54051;53.464;49.532;2022-11-15T12:31:44;12.38;;;2.08;;
67130;SDS011;54051;53.464;49.532;2022-11-15T12:36:46;6.13;;;1.70;;
67130;SDS011;54051;53.464;49.532;2022-11-15T12:39:14;5.68;;;1.88;;
67130;SDS011;54051;53.464;49.532;2022-11-15T12:41:43;12.07;;;4.68;;
67130;SDS011;54051;53.464;49.532;2022-11-15T13:17:48;6.60;;;1.60;;
67130;SDS011;54051;53.464;49.532;2022-11-15T13:20:17;5.88;;;1.60;;
67130;SDS011;54051;53.464;49.532;2022-11-15T13:28:18;8.70;;;2.03;;
67130;SDS011;54051;53.464;49.532;2022-11-15T13:33:33;11.32;;;2.60;;
67130;SDS011;54051;53.464;49.532;2022-11-15T13:36:21;8.48;;;2.25;;
67130;SDS011;54051;53.464;49.532;2022-11-15T13:41:30;9.20;;;2.30;;
67130;SDS011;54051;53.464;49.532;2022-11-15T13:43:58;9.07;;;2.90;;
67130;SDS011;54051;53.464;49.532;2022-11-15T13:46:27;10.55;;;2.53;;
67130;SDS011;54051;53.464;49.532;2022-11-15T13:51:32;11.45;;;4.10;;
67130;SDS011;54051;53.464;49.532;2022-11-15T13:56:48;16.88;;;4.10;;
67130;SDS011;54051;53.464;49.532;2022-11-15T13:59:25;10.13;;;3.33;;
67130;SDS011;54051;53.464;49.532;2022-11-15T14:02:03;8.93;;;2.40;;
67130;SDS011;54051;53.464;49.532;2022-11-15T14:04:38;12.88;;;2.97;;
67130;SDS011;54051;53.464;49.532;2022-11-15T14:07:15;9.90;;;2.97;;
67130;SDS011;54051;53.464;49.532;2022-11-15T14:09:44;10.75;;;2.50;;
67130;SDS011;54051;53.464;49.532;2022-11-15T14:15:01;10.02;;;3.08;;
67130;SDS011;54051;53.464;49.532;2022-11-15T14:17:44;18.92;;;5.07;;
67130;SDS011;54051;53.464;49.532;2022-11-15T14:23:19;8.38;;;3.10;;
67130;SDS011;54051;53.464;49.532;2022-11-15T14:25:53;11.57;;;2.72;;
67130;SDS011;54051;53.464;49.532;2022-11-15T14:30:51;8.02;;;2.78;;
67130;SDS011;54051;53.464;49.532;2022-11-15T14:36:04;8.77;;;2.60;;
67130;SDS011;54051;53.464;49.532;2022-11-15T14:38:56;11.50;;;2.95;;
67130;SDS011;54051;53.464;49.532;2022-11-15T14:41:23;11.13;;;2.90;;
67130;SDS011;54051;53.464;49.532;2022-11-15T14:43:51;10.88;;;3.35;;
67130;SDS011;54051;53.464;49.532;2022-11-15T14:46:18;13.30;;;3.35;;
67130;SDS011;54051;53.464;49.532;2022-11-15T14:48:44;17.15;;;5.88;;
67130;SDS011;54051;53.464;49.532;2022-11-15T14:51:15;11.65;;;2.78;;
67130;SDS011;54051;53.464;49.532;2022-11-15T14:53:42;10.30;;;2.30;;
67130;SDS011;54051;53.464;49.532;2022-11-15T14:56:09;6.93;;;2.55;;
67130;SDS011;54051;53.464;49.532;2022-11-15T14:58:36;7.95;;;2.47;;
67130;SDS011;54051;53.464;49.532;2022-11-15T15:01:03;7.97;;;2.45;;
67130;SDS011;54051;53.464;49.532;2022-11-15T15:03:41;8.32;;;2.47;;
67130;SDS011;54051;53.464;49.532;2022-11-15T15:08:39;11.95;;;3.40;;
67130;SDS011;54051;53.464;49.532;2022-11-15T15:11:13;12.98;;;3.75;;
67130;SDS011;54051;53.464;49.532;2022-11-15T15:13:41;12.10;;;2.88;;
67130;SDS011;54051;53.464;49.532;2022-11-15T15:16:07;10.88;;;2.60;;
67130;SDS011;54051;53.464;49.532;2022-11-15T15:18:33;8.57;;;2.60;;
67130;SDS011;54051;53.464;49.532;2022-11-15T15:20:59;9.68;;;2.80;;
67130;SDS011;54051;53.464;49.532;2022-11-15T15:23:32;7.10;;;2.63;;
67130;SDS011;54051;53.464;49.532;2022-11-15T15:25:58;7.80;;;2.50;;
67130;SDS011;54051;53.464;49.532;2022-11-15T15:28:24;12.38;;;2.65;;
67130;SDS011;54051;53.464;49.532;2022-11-15T15:30:50;8.90;;;2.97;;
67130;SDS011;54051;53.464;49.532;2022-11-15T15:33:18;9.75;;;2.83;;
67130;SDS011;54051;53.464;49.532;2022-11-15T15:35:44;5.60;;;2.22;;
67130;SDS011;54051;53.464;49.532;2022-11-15T15:38:13;6.68;;;2.03;;
67130;SDS011;54051;53.464;49.532;2022-11-15T15:40:40;6.03;;;1.92;;
67130;SDS011;54051;53.464;49.532;2022-11-15T15:43:06;6.95;;;1.85;;
67130;SDS011;54051;53.464;49.532;2022-11-15T15:45:35;5.80;;;2.00;;
67130;SDS011;54051;53.464;49.532;2022-11-15T15:48:04;7.18;;;2.22;;
67130;SDS011;54051;53.464;49.532;2022-11-15T15:50:34;7.32;;;2.47;;
67130;SDS011;54051;53.464;49.532;2022-11-15T15:53:01;6.60;;;2.72;;
67130;SDS011;54051;53.464;49.532;2022-11-15T15:55:28;10.52;;;3.28;;
67130;SDS011;54051;53.464;49.532;2022-11-15T15:57:54;10.27;;;3.53;;
67130;SDS011;54051;53.464;49.532;2022-11-15T16:00:21;9.77;;;3.42;;
67130;SDS011;54051;53.464;49.532;2022-11-15T16:02:50;8.80;;;3.00;;
67130;SDS011;54051;53.464;49.532;2022-11-15T16:05:16;7.20;;;2.23;;
67130;SDS011;54051;53.464;49.532;2022-11-15T16:07:43;6.03;;;1.63;;
67130;SDS011;54051;53.464;49.532;2022-11-15T16:10:31;4.85;;;1.70;;
67130;SDS011;54051;53.464;49.532;2022-11-15T16:13:02;4.65;;;1.58;;
67130;SDS011;54051;53.464;49.532;2022-11-15T16:15:29;5.85;;;1.80;;
67130;SDS011;54051;53.464;49.532;2022-11-15T16:20:39;4.28;;;1.42;;
67130;SDS011;54051;53.464;49.532;2022-11-15T16:23:11;5.05;;;1.58;;
67130;SDS011;54051;53.464;49.532;2022-11-15T16:28:18;5.20;;;1.67;;
67130;SDS011;54051;53.464;49.532;2022-11-15T16:30:58;4.63;;;1.50;;
67130;SDS011;54051;53.464;49.532;2022-11-15T16:33:25;4.40;;;1.55;;
67130;SDS011;54051;53.464;49.532;2022-11-15T16:35:51;5.70;;;1.75;;
67130;SDS011;54051;53.464;49.532;2022-11-15T16:38:17;6.03;;;1.67;;
67130;SDS011;54051;53.464;49.532;2022-11-15T16:40:43;4.20;;;1.45;;
67130;SDS011;54051;53.464;49.532;2022-11-15T16:43:10;5.72;;;1.63;;
67130;SDS011;54051;53.464;49.532;2022-11-15T16:45:36;4.78;;;1.70;;
67130;SDS011;54051;53.464;49.532;2022-11-15T16:48:02;6.13;;;1.58;;
67130;SDS011;54051;53.464;49.532;2022-11-15T16:50:30;6.25;;;1.80;;
67130;SDS011;54051;53.464;49.532;2022-11-15T16:52:59;7.75;;;2.58;;
67130;SDS011;54051;53.464;49.532;2022-11-15T16:55:26;7.13;;;1.88;;
67130;SDS011;54051;53.464;49.532;2022-11-15T16:57:55;6.28;;;1.90;;
67130;SDS011;54051;53.464;49.532;2022-11-15T17:00:24;5.45;;;1.80;;
67130;SDS011;54051;53.464;49.532;2022-11-15T17:02:50;6.05;;;1.83;;
67130;SDS011;54051;53.464;49.532;2022-11-15T17:05:18;7.30;;;1.80;;
67130;SDS011;54051;53.464;49.532;2022-11-15T17:07:47;5.75;;;2.05;;
67130;SDS011;54051;53.464;49.532;2022-11-15T17:10:15;4.78;;;1.80;;
67130;SDS011;54051;53.464;49.532;2022-11-15T17:12:41;6.47;;;1.70;;
67130;SDS011;54051;53.464;49.532;2022-11-15T17:15:09;5.07;;;1.65;;
67130;SDS011;54051;53.464;49.532;2022-11-15T17:17:37;5.45;;;1.77;;
67130;SDS011;54051;53.464;49.532;2022-11-15T17:20:03;24.92;;;9.20;;
67130;SDS011;54051;53.464;49.532;2022-11-15T17:22:37;8.00;;;3.15;;
67130;SDS011;54051;53.464;49.532;2022-11-15T17:25:03;6.20;;;1.98;;
67130;SDS011;54051;53.464;49.532;2022-11-15T17:27:29;5.13;;;1.80;;
67130;SDS011;54051;53.464;49.532;2022-11-15T17:29:56;4.63;;;1.83;;
67130;SDS011;54051;53.464;49.532;2022-11-15T17:32:22;5.03;;;1.70;;
67130;SDS011;54051;53.464;49.532;2022-11-15T17:34:48;5.28;;;1.70;;
67130;SDS011;54051;53.464;49.532;2022-11-15T17:37:14;4.30;;;1.60;;